sensor_id;sensor_type;location;lat;lon;timestamp;temperature;humidity
12588;DHT22;6359;51.450;7.346;2023-04-01T00:01:59;9.50;99.90
12588;DHT22;6359;51.450;7.346;2023-04-01T00:04:28;9.40;99.90
12588;DHT22;6359;51.450;7.346;2023-04-01T00:06:55;9.40;99.90
12588;DHT22;6359;51.450;7.346;2023-04-01T00:09:22;9.40;99.90
12588;DHT22;6359;51.450;7.346;2023-04-01T00:11:49;9.40;99.90
12588;DHT22;6359;51.450;7.346;2023-04-01T00:14:17;9.40;99.90
12588;DHT22;6359;51.450;7.346;2023-04-01T00:16:44;9.40;99.90
12588;DHT22;6359;51.450;7.346;2023-04-01T00:19:11;9.40;99.90
12588;DHT22;6359;51.450;7.346;2023-04-01T00:21:39;9.40;99.90
12588;DHT22;6359;51.450;7.346;2023-04-01T00:24:06;9.40;99.90
12588;DHT22;6359;51.450;7.346;2023-04-01T00:26:34;9.40;99.90
12588;DHT22;6359;51.450;7.346;2023-04-01T00:29:01;9.40;99.90
12588;DHT22;6359;51.450;7.346;2023-04-01T00:31:28;9.40;99.90
12588;DHT22;6359;51.450;7.346;2023-04-01T00:33:55;9.40;99.90
12588;DHT22;6359;51.450;7.346;2023-04-01T00:36:23;9.40;99.90
12588;DHT22;6359;51.450;7.346;2023-04-01T00:38:52;9.30;99.90
12588;DHT22;6359;51.450;7.346;2023-04-01T00:41:20;9.30;99.90
12588;DHT22;6359;51.450;7.346;2023-04-01T00:43:48;9.30;99.90
12588;DHT22;6359;51.450;7.346;2023-04-01T00:46:16;9.30;99.90
12588;DHT22;6359;51.450;7.346;2023-04-01T00:48:47;9.20;99.90
12588;DHT22;6359;51.450;7.346;2023-04-01T00:51:18;9.20;99.90
12588;DHT22;6359;51.450;7.346;2023-04-01T00:53:54;9.20;99.90
12588;DHT22;6359;51.450;7.346;2023-04-01T00:56:24;9.20;99.90
12588;DHT22;6359;51.450;7.346;2023-04-01T00:58:56;9.10;99.90
12588;DHT22;6359;51.450;7.346;2023-04-01T01:01:26;9.10;99.90
12588;DHT22;6359;51.450;7.346;2023-04-01T01:03:54;9.20;99.90
12588;DHT22;6359;51.450;7.346;2023-04-01T01:06:30;9.20;99.90
12588;DHT22;6359;51.450;7.346;2023-04-01T01:09:13;9.20;99.90
12588;DHT22;6359;51.450;7.346;2023-04-01T01:11:47;9.10;99.90
12588;DHT22;6359;51.450;7.346;2023-04-01T01:14:27;9.10;99.90
12588;DHT22;6359;51.450;7.346;2023-04-01T01:17:02;9.10;99.90
12588;DHT22;6359;51.450;7.346;2023-04-01T01:19:58;9.10;99.90
12588;DHT22;6359;51.450;7.346;2023-04-01T01:22:39;9.00;99.90
12588;DHT22;6359;51.450;7.346;2023-04-01T01:25:21;9.00;99.90
12588;DHT22;6359;51.450;7.346;2023-04-01T01:27:58;9.00;99.90
12588;DHT22;6359;51.450;7.346;2023-04-01T01:30:41;9.00;99.90
12588;DHT22;6359;51.450;7.346;2023-04-01T01:33:33;8.90;99.90
12588;DHT22;6359;51.450;7.346;2023-04-01T01:36:04;8.90;99.90
12588;DHT22;6359;51.450;7.346;2023-04-01T01:38:35;9.00;99.90
12588;DHT22;6359;51.450;7.346;2023-04-01T01:41:04;8.90;99.90
12588;DHT22;6359;51.450;7.346;2023-04-01T01:43:37;9.00;99.90
12588;DHT22;6359;51.450;7.346;2023-04-01T01:46:09;8.90;99.90
12588;DHT22;6359;51.450;7.346;2023-04-01T01:48:37;8.90;99.90
12588;DHT22;6359;51.450;7.346;2023-04-01T01:51:07;8.90;99.90
12588;DHT22;6359;51.450;7.346;2023-04-01T01:53:34;8.90;99.90
12588;DHT22;6359;51.450;7.346;2023-04-01T01:56:01;8.90;99.90
12588;DHT22;6359;51.450;7.346;2023-04-01T01:58:31;8.90;99.90
12588;DHT22;6359;51.450;7.346;2023-04-01T02:01:03;8.90;99.90
12588;DHT22;6359;51.450;7.346;2023-04-01T02:03:34;9.00;99.90
12588;DHT22;6359;51.450;7.346;2023-04-01T02:06:05;8.90;99.90
12588;DHT22;6359;51.450;7.346;2023-04-01T02:08:36;8.90;99.90
12588;DHT22;6359;51.450;7.346;2023-04-01T02:11:08;8.90;99.90
12588;DHT22;6359;51.450;7.346;2023-04-01T02:13:39;8.90;99.90
12588;DHT22;6359;51.450;7.346;2023-04-01T02:16:12;8.90;99.90
12588;DHT22;6359;51.450;7.346;2023-04-01T02:18:40;8.90;99.90
12588;DHT22;6359;51.450;7.346;2023-04-01T02:21:08;8.90;99.90
12588;DHT22;6359;51.450;7.346;2023-04-01T02:23:38;8.90;99.90
12588;DHT22;6359;51.450;7.346;2023-04-01T02:26:07;9.00;99.90
12588;DHT22;6359;51.450;7.346;2023-04-01T02:28:37;9.00;99.90
12588;DHT22;6359;51.450;7.346;2023-04-01T02:31:06;9.10;99.90
12588;DHT22;6359;51.450;7.346;2023-04-01T02:33:33;9.10;99.90
12588;DHT22;6359;51.450;7.346;2023-04-01T02:36:00;9.10;99.90
12588;DHT22;6359;51.450;7.346;2023-04-01T02:38:27;9.10;99.90
12588;DHT22;6359;51.450;7.346;2023-04-01T02:41:00;9.10;99.90
12588;DHT22;6359;51.450;7.346;2023-04-01T02:43:27;9.00;99.90
12588;DHT22;6359;51.450;7.346;2023-04-01T02:45:54;9.00;99.90
12588;DHT22;6359;51.450;7.346;2023-04-01T02:48:22;9.00;99.90
12588;DHT22;6359;51.450;7.346;2023-04-01T02:50:49;9.00;99.90
12588;DHT22;6359;51.450;7.346;2023-04-01T02:53:16;9.00;99.90
12588;DHT22;6359;51.450;7.346;2023-04-01T02:55:43;9.00;99.90
12588;DHT22;6359;51.450;7.346;2023-04-01T02:58:13;9.00;99.90
12588;DHT22;6359;51.450;7.346;2023-04-01T03:00:40;9.00;99.90
12588;DHT22;6359;51.450;7.346;2023-04-01T03:03:07;9.00;99.90
12588;DHT22;6359;51.450;7.346;2023-04-01T03:05:34;9.00;99.90
12588;DHT22;6359;51.450;7.346;2023-04-01T03:08:02;9.00;99.90
12588;DHT22;6359;51.450;7.346;2023-04-01T03:10:29;9.00;99.90
12588;DHT22;6359;51.450;7.346;2023-04-01T03:12:56;8.90;99.90
12588;DHT22;6359;51.450;7.346;2023-04-01T03:15:24;8.90;99.90
12588;DHT22;6359;51.450;7.346;2023-04-01T03:17:51;8.80;99.90
12588;DHT22;6359;51.450;7.346;2023-04-01T03:20:18;8.80;99.90
12588;DHT22;6359;51.450;7.346;2023-04-01T03:22:45;8.80;99.90
12588;DHT22;6359;51.450;7.346;2023-04-01T03:25:13;8.80;99.90
12588;DHT22;6359;51.450;7.346;2023-04-01T03:27:40;8.80;99.90
12588;DHT22;6359;51.450;7.346;2023-04-01T03:30:08;8.80;99.90
12588;DHT22;6359;51.450;7.346;2023-04-01T03:32:36;8.80;99.90
12588;DHT22;6359;51.450;7.346;2023-04-01T03:35:04;8.80;99.90
12588;DHT22;6359;51.450;7.346;2023-04-01T03:37:31;8.80;99.90
12588;DHT22;6359;51.450;7.346;2023-04-01T03:39:59;8.80;99.90
12588;DHT22;6359;51.450;7.346;2023-04-01T03:42:26;8.80;99.90
12588;DHT22;6359;51.450;7.346;2023-04-01T03:44:53;8.80;99.90
12588;DHT22;6359;51.450;7.346;2023-04-01T03:47:20;8.70;99.90
12588;DHT22;6359;51.450;7.346;2023-04-01T03:49:48;8.70;99.90
12588;DHT22;6359;51.450;7.346;2023-04-01T03:52:15;8.80;99.90
12588;DHT22;6359;51.450;7.346;2023-04-01T03:54:42;8.80;99.90
12588;DHT22;6359;51.450;7.346;2023-04-01T03:57:09;8.80;99.90
12588;DHT22;6359;51.450;7.346;2023-04-01T03:59:36;8.80;99.90
12588;DHT22;6359;51.450;7.346;2023-04-01T04:02:03;8.70;99.90
12588;DHT22;6359;51.450;7.346;2023-04-01T04:04:30;8.70;99.90
12588;DHT22;6359;51.450;7.346;2023-04-01T04:06:59;8.70;99.90
12588;DHT22;6359;51.450;7.346;2023-04-01T04:09:26;8.60;99.90
12588;DHT22;6359;51.450;7.346;2023-04-01T04:11:53;8.60;99.90
12588;DHT22;6359;51.450;7.346;2023-04-01T04:14:20;8.60;99.90
12588;DHT22;6359;51.450;7.346;2023-04-01T04:16:47;8.60;99.90
12588;DHT22;6359;51.450;7.346;2023-04-01T04:19:14;8.60;99.90
12588;DHT22;6359;51.450;7.346;2023-04-01T04:21:42;8.70;99.90
12588;DHT22;6359;51.450;7.346;2023-04-01T04:24:10;8.70;99.90
12588;DHT22;6359;51.450;7.346;2023-04-01T04:26:37;8.60;99.90
12588;DHT22;6359;51.450;7.346;2023-04-01T04:29:04;8.70;99.90
12588;DHT22;6359;51.450;7.346;2023-04-01T04:31:31;8.70;99.90
12588;DHT22;6359;51.450;7.346;2023-04-01T04:34:00;8.60;99.90
12588;DHT22;6359;51.450;7.346;2023-04-01T04:36:27;8.70;99.90
12588;DHT22;6359;51.450;7.346;2023-04-01T04:38:54;8.70;99.90
12588;DHT22;6359;51.450;7.346;2023-04-01T04:41:22;8.70;99.90
12588;DHT22;6359;51.450;7.346;2023-04-01T04:43:52;8.70;99.90
12588;DHT22;6359;51.450;7.346;2023-04-01T04:46:20;8.70;99.90
12588;DHT22;6359;51.450;7.346;2023-04-01T04:48:47;8.80;99.90
12588;DHT22;6359;51.450;7.346;2023-04-01T04:51:15;8.80;99.90
12588;DHT22;6359;51.450;7.346;2023-04-01T04:53:42;8.80;99.90
12588;DHT22;6359;51.450;7.346;2023-04-01T04:56:09;8.90;99.90
12588;DHT22;6359;51.450;7.346;2023-04-01T04:58:38;8.90;99.90
12588;DHT22;6359;51.450;7.346;2023-04-01T05:01:07;9.00;99.90
12588;DHT22;6359;51.450;7.346;2023-04-01T05:03:35;9.00;99.90
12588;DHT22;6359;51.450;7.346;2023-04-01T05:06:02;9.00;99.90
12588;DHT22;6359;51.450;7.346;2023-04-01T05:08:30;9.00;99.90
12588;DHT22;6359;51.450;7.346;2023-04-01T05:10:58;9.00;99.90
12588;DHT22;6359;51.450;7.346;2023-04-01T05:13:25;9.00;99.90
12588;DHT22;6359;51.450;7.346;2023-04-01T05:15:54;9.00;99.90
12588;DHT22;6359;51.450;7.346;2023-04-01T05:18:21;9.00;99.90
12588;DHT22;6359;51.450;7.346;2023-04-01T05:20:48;9.00;99.90
12588;DHT22;6359;51.450;7.346;2023-04-01T05:23:16;9.00;99.90
12588;DHT22;6359;51.450;7.346;2023-04-01T05:25:43;9.00;99.90
12588;DHT22;6359;51.450;7.346;2023-04-01T05:28:11;9.00;99.90
12588;DHT22;6359;51.450;7.346;2023-04-01T05:30:40;9.00;99.90
12588;DHT22;6359;51.450;7.346;2023-04-01T05:33:10;9.00;99.90
12588;DHT22;6359;51.450;7.346;2023-04-01T05:35:37;9.10;99.90
12588;DHT22;6359;51.450;7.346;2023-04-01T05:38:05;9.10;99.90
12588;DHT22;6359;51.450;7.346;2023-04-01T05:40:32;9.10;99.90
12588;DHT22;6359;51.450;7.346;2023-04-01T05:42:59;9.10;99.90
12588;DHT22;6359;51.450;7.346;2023-04-01T05:45:27;9.10;99.90
12588;DHT22;6359;51.450;7.346;2023-04-01T05:47:54;9.10;99.90
12588;DHT22;6359;51.450;7.346;2023-04-01T05:50:22;9.10;99.90
12588;DHT22;6359;51.450;7.346;2023-04-01T05:52:49;9.20;99.90
12588;DHT22;6359;51.450;7.346;2023-04-01T05:55:16;9.20;99.90
12588;DHT22;6359;51.450;7.346;2023-04-01T05:57:45;9.30;99.90
12588;DHT22;6359;51.450;7.346;2023-04-01T06:00:12;9.30;99.90
12588;DHT22;6359;51.450;7.346;2023-04-01T06:02:39;9.40;99.90
12588;DHT22;6359;51.450;7.346;2023-04-01T06:05:14;9.30;99.90
12588;DHT22;6359;51.450;7.346;2023-04-01T06:07:44;9.30;99.90
12588;DHT22;6359;51.450;7.346;2023-04-01T06:10:14;9.30;99.90
12588;DHT22;6359;51.450;7.346;2023-04-01T06:12:51;9.40;99.90
12588;DHT22;6359;51.450;7.346;2023-04-01T06:15:25;9.40;99.90
12588;DHT22;6359;51.450;7.346;2023-04-01T06:20:53;9.40;99.90
12588;DHT22;6359;51.450;7.346;2023-04-01T06:23:35;9.40;99.90
12588;DHT22;6359;51.450;7.346;2023-04-01T06:26:14;9.40;99.90
12588;DHT22;6359;51.450;7.346;2023-04-01T06:29:21;9.40;99.90
12588;DHT22;6359;51.450;7.346;2023-04-01T06:32:06;9.40;99.90
12588;DHT22;6359;51.450;7.346;2023-04-01T06:35:02;9.50;99.90
12588;DHT22;6359;51.450;7.346;2023-04-01T06:37:54;9.50;99.90
12588;DHT22;6359;51.450;7.346;2023-04-01T06:41:00;9.50;99.90
12588;DHT22;6359;51.450;7.346;2023-04-01T06:43:38;9.60;99.90
12588;DHT22;6359;51.450;7.346;2023-04-01T06:46:12;9.60;99.90
12588;DHT22;6359;51.450;7.346;2023-04-01T06:48:59;9.50;99.90
12588;DHT22;6359;51.450;7.346;2023-04-01T06:51:35;9.40;99.90
12588;DHT22;6359;51.450;7.346;2023-04-01T06:54:10;9.40;99.90
12588;DHT22;6359;51.450;7.346;2023-04-01T06:56:42;9.40;99.90
12588;DHT22;6359;51.450;7.346;2023-04-01T06:59:13;9.40;99.90
12588;DHT22;6359;51.450;7.346;2023-04-01T07:01:45;9.40;99.90
12588;DHT22;6359;51.450;7.346;2023-04-01T07:04:16;9.30;99.90
12588;DHT22;6359;51.450;7.346;2023-04-01T07:06:50;9.20;99.90
12588;DHT22;6359;51.450;7.346;2023-04-01T07:09:20;9.20;99.90
12588;DHT22;6359;51.450;7.346;2023-04-01T07:11:50;9.20;99.90
12588;DHT22;6359;51.450;7.346;2023-04-01T07:14:22;9.20;99.90
12588;DHT22;6359;51.450;7.346;2023-04-01T07:16:54;9.20;99.90
12588;DHT22;6359;51.450;7.346;2023-04-01T07:19:29;9.30;99.90
12588;DHT22;6359;51.450;7.346;2023-04-01T07:22:01;9.30;99.90
12588;DHT22;6359;51.450;7.346;2023-04-01T07:24:33;9.30;99.90
12588;DHT22;6359;51.450;7.346;2023-04-01T07:27:04;9.20;99.90
12588;DHT22;6359;51.450;7.346;2023-04-01T07:29:32;9.30;99.90
12588;DHT22;6359;51.450;7.346;2023-04-01T07:32:14;9.30;99.90
12588;DHT22;6359;51.450;7.346;2023-04-01T07:34:54;9.40;99.90
12588;DHT22;6359;51.450;7.346;2023-04-01T07:37:27;9.50;99.90
12588;DHT22;6359;51.450;7.346;2023-04-01T07:40:03;9.50;99.90
12588;DHT22;6359;51.450;7.346;2023-04-01T07:42:43;9.60;99.90
12588;DHT22;6359;51.450;7.346;2023-04-01T07:45:18;9.60;99.90
12588;DHT22;6359;51.450;7.346;2023-04-01T07:48:05;9.50;99.90
12588;DHT22;6359;51.450;7.346;2023-04-01T07:50:38;9.60;99.90
12588;DHT22;6359;51.450;7.346;2023-04-01T07:53:12;9.60;99.90
12588;DHT22;6359;51.450;7.346;2023-04-01T07:55:44;9.60;99.90
12588;DHT22;6359;51.450;7.346;2023-04-01T07:58:23;9.70;99.90
12588;DHT22;6359;51.450;7.346;2023-04-01T08:00:59;9.80;99.90
12588;DHT22;6359;51.450;7.346;2023-04-01T08:03:43;9.80;99.90
12588;DHT22;6359;51.450;7.346;2023-04-01T08:06:18;9.70;99.90
12588;DHT22;6359;51.450;7.346;2023-04-01T08:08:56;9.70;99.90
12588;DHT22;6359;51.450;7.346;2023-04-01T08:11:36;9.70;99.90
12588;DHT22;6359;51.450;7.346;2023-04-01T08:14:11;9.80;99.90
12588;DHT22;6359;51.450;7.346;2023-04-01T08:16:47;9.90;99.90
12588;DHT22;6359;51.450;7.346;2023-04-01T08:19:25;10.00;99.90
12588;DHT22;6359;51.450;7.346;2023-04-01T08:21:58;10.10;99.90
12588;DHT22;6359;51.450;7.346;2023-04-01T08:24:34;10.20;99.90
12588;DHT22;6359;51.450;7.346;2023-04-01T08:27:09;10.40;99.90
12588;DHT22;6359;51.450;7.346;2023-04-01T08:29:44;10.60;99.90
12588;DHT22;6359;51.450;7.346;2023-04-01T08:32:17;10.50;99.90
12588;DHT22;6359;51.450;7.346;2023-04-01T08:34:50;10.30;99.90
12588;DHT22;6359;51.450;7.346;2023-04-01T08:37:20;10.10;99.90
12588;DHT22;6359;51.450;7.346;2023-04-01T08:39:50;9.90;99.90
12588;DHT22;6359;51.450;7.346;2023-04-01T08:42:36;9.70;99.90
12588;DHT22;6359;51.450;7.346;2023-04-01T08:48:40;9.70;99.90
12588;DHT22;6359;51.450;7.346;2023-04-01T08:54:29;9.60;99.90
12588;DHT22;6359;51.450;7.346;2023-04-01T08:57:03;9.60;99.90
12588;DHT22;6359;51.450;7.346;2023-04-01T08:59:50;9.60;99.90
12588;DHT22;6359;51.450;7.346;2023-04-01T09:02:51;9.60;99.90
12588;DHT22;6359;51.450;7.346;2023-04-01T09:05:41;9.60;99.90
12588;DHT22;6359;51.450;7.346;2023-04-01T09:08:27;9.70;99.90
12588;DHT22;6359;51.450;7.346;2023-04-01T09:11:17;9.80;99.90
12588;DHT22;6359;51.450;7.346;2023-04-01T09:17:18;9.80;99.90
12588;DHT22;6359;51.450;7.346;2023-04-01T09:20:04;9.90;99.90
12588;DHT22;6359;51.450;7.346;2023-04-01T09:22:42;10.00;99.90
12588;DHT22;6359;51.450;7.346;2023-04-01T09:25:29;10.00;99.90
12588;DHT22;6359;51.450;7.346;2023-04-01T09:28:03;10.10;99.90
12588;DHT22;6359;51.450;7.346;2023-04-01T09:30:45;10.10;99.90
12588;DHT22;6359;51.450;7.346;2023-04-01T09:33:49;10.10;99.90
12588;DHT22;6359;51.450;7.346;2023-04-01T09:36:38;10.10;99.90
12588;DHT22;6359;51.450;7.346;2023-04-01T09:39:20;10.10;99.90
12588;DHT22;6359;51.450;7.346;2023-04-01T09:42:04;10.10;99.90
12588;DHT22;6359;51.450;7.346;2023-04-01T09:44:34;10.10;99.90
12588;DHT22;6359;51.450;7.346;2023-04-01T09:47:15;10.00;99.90
12588;DHT22;6359;51.450;7.346;2023-04-01T09:50:10;10.00;99.90
12588;DHT22;6359;51.450;7.346;2023-04-01T09:52:47;10.00;99.90
12588;DHT22;6359;51.450;7.346;2023-04-01T09:58:45;9.90;99.90
12588;DHT22;6359;51.450;7.346;2023-04-01T10:01:47;9.80;99.90
12588;DHT22;6359;51.450;7.346;2023-04-01T10:04:50;9.80;99.90
12588;DHT22;6359;51.450;7.346;2023-04-01T10:07:59;9.80;99.90
12588;DHT22;6359;51.450;7.346;2023-04-01T10:11:04;9.90;99.90
12588;DHT22;6359;51.450;7.346;2023-04-01T10:17:00;10.20;99.90
12588;DHT22;6359;51.450;7.346;2023-04-01T10:19:55;10.40;99.90
12588;DHT22;6359;51.450;7.346;2023-04-01T10:22:43;10.30;99.90
12588;DHT22;6359;51.450;7.346;2023-04-01T10:25:50;10.30;99.90
12588;DHT22;6359;51.450;7.346;2023-04-01T10:28:43;10.20;99.90
12588;DHT22;6359;51.450;7.346;2023-04-01T10:31:41;10.30;99.90
12588;DHT22;6359;51.450;7.346;2023-04-01T10:34:43;10.40;99.90
12588;DHT22;6359;51.450;7.346;2023-04-01T10:37:37;10.40;99.90
12588;DHT22;6359;51.450;7.346;2023-04-01T10:40:27;10.30;99.90
12588;DHT22;6359;51.450;7.346;2023-04-01T10:52:40;10.40;99.90
12588;DHT22;6359;51.450;7.346;2023-04-01T10:55:37;10.40;99.90
12588;DHT22;6359;51.450;7.346;2023-04-01T11:01:47;10.60;99.90
12588;DHT22;6359;51.450;7.346;2023-04-01T11:04:50;10.60;99.90
12588;DHT22;6359;51.450;7.346;2023-04-01T11:08:01;10.60;99.90
12588;DHT22;6359;51.450;7.346;2023-04-01T11:11:02;10.60;99.90
12588;DHT22;6359;51.450;7.346;2023-04-01T11:14:00;10.30;99.90
12588;DHT22;6359;51.450;7.346;2023-04-01T11:17:03;10.30;99.90
12588;DHT22;6359;51.450;7.346;2023-04-01T11:20:15;10.20;99.90
12588;DHT22;6359;51.450;7.346;2023-04-01T11:23:03;10.30;99.90
12588;DHT22;6359;51.450;7.346;2023-04-01T11:25:56;10.30;99.90
12588;DHT22;6359;51.450;7.346;2023-04-01T11:29:09;10.30;99.90
12588;DHT22;6359;51.450;7.346;2023-04-01T11:31:47;10.30;99.90
12588;DHT22;6359;51.450;7.346;2023-04-01T11:34:28;10.30;99.90
12588;DHT22;6359;51.450;7.346;2023-04-01T11:37:05;10.30;99.90
12588;DHT22;6359;51.450;7.346;2023-04-01T11:39:42;10.20;99.90
12588;DHT22;6359;51.450;7.346;2023-04-01T11:42:20;10.30;99.90
12588;DHT22;6359;51.450;7.346;2023-04-01T11:44:58;10.30;99.90
12588;DHT22;6359;51.450;7.346;2023-04-01T11:47:49;10.30;99.90
12588;DHT22;6359;51.450;7.346;2023-04-01T11:50:24;10.30;99.90
12588;DHT22;6359;51.450;7.346;2023-04-01T11:55:53;10.40;99.90
12588;DHT22;6359;51.450;7.346;2023-04-01T11:58:43;10.60;99.90
12588;DHT22;6359;51.450;7.346;2023-04-01T12:01:38;10.70;99.90
12588;DHT22;6359;51.450;7.346;2023-04-01T12:04:35;10.80;99.90
12588;DHT22;6359;51.450;7.346;2023-04-01T12:07:15;10.80;99.90
12588;DHT22;6359;51.450;7.346;2023-04-01T12:09:51;10.90;99.90
12588;DHT22;6359;51.450;7.346;2023-04-01T12:12:29;10.90;99.90
12588;DHT22;6359;51.450;7.346;2023-04-01T12:15:10;10.90;99.90
12588;DHT22;6359;51.450;7.346;2023-04-01T12:17:46;11.00;99.90
12588;DHT22;6359;51.450;7.346;2023-04-01T12:20:35;11.00;99.90
12588;DHT22;6359;51.450;7.346;2023-04-01T12:23:13;11.00;99.90
12588;DHT22;6359;51.450;7.346;2023-04-01T12:26:05;11.10;99.90
12588;DHT22;6359;51.450;7.346;2023-04-01T12:28:44;11.20;99.90
12588;DHT22;6359;51.450;7.346;2023-04-01T12:31:36;11.20;99.90
12588;DHT22;6359;51.450;7.346;2023-04-01T12:34:31;11.10;99.90
12588;DHT22;6359;51.450;7.346;2023-04-01T12:37:12;11.00;99.90
12588;DHT22;6359;51.450;7.346;2023-04-01T12:40:02;10.90;99.90
12588;DHT22;6359;51.450;7.346;2023-04-01T12:42:44;10.90;99.90
12588;DHT22;6359;51.450;7.346;2023-04-01T12:45:35;10.90;99.90
12588;DHT22;6359;51.450;7.346;2023-04-01T12:48:23;11.00;99.90
12588;DHT22;6359;51.450;7.346;2023-04-01T12:54:12;11.20;99.90
12588;DHT22;6359;51.450;7.346;2023-04-01T12:56:48;11.20;99.90
12588;DHT22;6359;51.450;7.346;2023-04-01T12:59:37;11.40;99.90
12588;DHT22;6359;51.450;7.346;2023-04-01T13:02:22;11.70;99.90
12588;DHT22;6359;51.450;7.346;2023-04-01T13:08:03;12.00;99.90
12588;DHT22;6359;51.450;7.346;2023-04-01T13:10:43;12.00;99.90
12588;DHT22;6359;51.450;7.346;2023-04-01T13:13:25;12.00;99.90
12588;DHT22;6359;51.450;7.346;2023-04-01T13:15:58;11.80;99.90
12588;DHT22;6359;51.450;7.346;2023-04-01T13:18:33;11.70;99.90
12588;DHT22;6359;51.450;7.346;2023-04-01T13:21:08;11.70;99.90
12588;DHT22;6359;51.450;7.346;2023-04-01T13:23:54;11.70;99.90
12588;DHT22;6359;51.450;7.346;2023-04-01T13:26:27;11.50;99.90
12588;DHT22;6359;51.450;7.346;2023-04-01T13:29:00;11.40;99.90
12588;DHT22;6359;51.450;7.346;2023-04-01T13:31:38;11.60;99.90
12588;DHT22;6359;51.450;7.346;2023-04-01T13:34:20;11.70;99.90
12588;DHT22;6359;51.450;7.346;2023-04-01T13:36:59;11.70;99.90
12588;DHT22;6359;51.450;7.346;2023-04-01T13:39:40;11.60;99.90
12588;DHT22;6359;51.450;7.346;2023-04-01T13:42:16;11.50;99.90
12588;DHT22;6359;51.450;7.346;2023-04-01T13:44:49;11.40;99.90
12588;DHT22;6359;51.450;7.346;2023-04-01T13:47:29;11.40;99.90
12588;DHT22;6359;51.450;7.346;2023-04-01T13:50:22;11.50;99.90
12588;DHT22;6359;51.450;7.346;2023-04-01T13:53:17;11.40;99.90
12588;DHT22;6359;51.450;7.346;2023-04-01T13:56:07;11.30;99.90
12588;DHT22;6359;51.450;7.346;2023-04-01T13:58:55;11.10;99.90
12588;DHT22;6359;51.450;7.346;2023-04-01T14:01:35;11.00;99.90
12588;DHT22;6359;51.450;7.346;2023-04-01T14:04:24;10.90;99.90
12588;DHT22;6359;51.450;7.346;2023-04-01T14:07:04;10.80;99.90
12588;DHT22;6359;51.450;7.346;2023-04-01T14:09:45;10.80;99.90
12588;DHT22;6359;51.450;7.346;2023-04-01T14:12:27;10.70;99.90
12588;DHT22;6359;51.450;7.346;2023-04-01T14:15:14;10.60;99.90
12588;DHT22;6359;51.450;7.346;2023-04-01T14:18:01;10.60;99.90
12588;DHT22;6359;51.450;7.346;2023-04-01T14:20:37;10.60;99.90
12588;DHT22;6359;51.450;7.346;2023-04-01T14:23:21;10.50;99.90
12588;DHT22;6359;51.450;7.346;2023-04-01T14:26:15;10.40;99.90
12588;DHT22;6359;51.450;7.346;2023-04-01T14:28:55;10.40;99.90
12588;DHT22;6359;51.450;7.346;2023-04-01T14:31:34;10.40;99.90
12588;DHT22;6359;51.450;7.346;2023-04-01T14:34:11;10.40;99.90
12588;DHT22;6359;51.450;7.346;2023-04-01T14:36:55;10.40;99.90
12588;DHT22;6359;51.450;7.346;2023-04-01T14:39:56;10.40;99.90
12588;DHT22;6359;51.450;7.346;2023-04-01T14:42:44;10.40;99.90
12588;DHT22;6359;51.450;7.346;2023-04-01T14:45:46;10.30;99.90
12588;DHT22;6359;51.450;7.346;2023-04-01T14:48:25;10.30;99.90
12588;DHT22;6359;51.450;7.346;2023-04-01T14:51:02;10.30;99.90
12588;DHT22;6359;51.450;7.346;2023-04-01T14:53:33;10.30;99.90
12588;DHT22;6359;51.450;7.346;2023-04-01T14:56:04;10.30;99.90
12588;DHT22;6359;51.450;7.346;2023-04-01T14:58:42;10.30;99.90
12588;DHT22;6359;51.450;7.346;2023-04-01T15:01:31;10.30;99.90
12588;DHT22;6359;51.450;7.346;2023-04-01T15:04:15;10.30;99.90
12588;DHT22;6359;51.450;7.346;2023-04-01T15:07:03;10.20;99.90
12588;DHT22;6359;51.450;7.346;2023-04-01T15:09:37;10.20;99.90
12588;DHT22;6359;51.450;7.346;2023-04-01T15:12:17;10.20;99.90
12588;DHT22;6359;51.450;7.346;2023-04-01T15:15:04;10.30;99.90
12588;DHT22;6359;51.450;7.346;2023-04-01T15:17:46;10.30;99.90
12588;DHT22;6359;51.450;7.346;2023-04-01T15:20:30;10.50;99.90
12588;DHT22;6359;51.450;7.346;2023-04-01T15:23:10;10.60;99.90
12588;DHT22;6359;51.450;7.346;2023-04-01T15:26:04;10.70;99.90
12588;DHT22;6359;51.450;7.346;2023-04-01T15:28:38;10.80;99.90
12588;DHT22;6359;51.450;7.346;2023-04-01T15:31:10;10.80;99.90
12588;DHT22;6359;51.450;7.346;2023-04-01T15:33:53;10.60;99.90
12588;DHT22;6359;51.450;7.346;2023-04-01T15:36:34;10.70;99.90
12588;DHT22;6359;51.450;7.346;2023-04-01T15:39:10;10.60;99.90
12588;DHT22;6359;51.450;7.346;2023-04-01T15:41:46;10.60;99.90
12588;DHT22;6359;51.450;7.346;2023-04-01T15:44:37;10.60;99.90
12588;DHT22;6359;51.450;7.346;2023-04-01T15:47:31;10.60;99.90
12588;DHT22;6359;51.450;7.346;2023-04-01T15:50:40;10.80;99.90
12588;DHT22;6359;51.450;7.346;2023-04-01T15:53:23;10.90;99.90
12588;DHT22;6359;51.450;7.346;2023-04-01T15:55:56;11.00;99.90
12588;DHT22;6359;51.450;7.346;2023-04-01T15:58:43;11.00;99.90
12588;DHT22;6359;51.450;7.346;2023-04-01T16:01:24;11.10;99.90
12588;DHT22;6359;51.450;7.346;2023-04-01T16:03:55;11.00;99.90
12588;DHT22;6359;51.450;7.346;2023-04-01T16:06:50;11.00;99.90
12588;DHT22;6359;51.450;7.346;2023-04-01T16:09:50;11.00;99.90
12588;DHT22;6359;51.450;7.346;2023-04-01T16:12:32;10.70;99.90
12588;DHT22;6359;51.450;7.346;2023-04-01T16:15:10;10.70;99.90
12588;DHT22;6359;51.450;7.346;2023-04-01T16:17:54;10.60;99.90
12588;DHT22;6359;51.450;7.346;2023-04-01T16:20:41;10.60;99.90
12588;DHT22;6359;51.450;7.346;2023-04-01T16:23:18;10.60;99.90
12588;DHT22;6359;51.450;7.346;2023-04-01T16:25:53;10.50;99.90
12588;DHT22;6359;51.450;7.346;2023-04-01T16:28:27;10.50;99.90
12588;DHT22;6359;51.450;7.346;2023-04-01T16:30:58;10.40;99.90
12588;DHT22;6359;51.450;7.346;2023-04-01T16:33:35;10.40;99.90
12588;DHT22;6359;51.450;7.346;2023-04-01T16:36:20;10.40;99.90
12588;DHT22;6359;51.450;7.346;2023-04-01T16:38:55;10.40;99.90
12588;DHT22;6359;51.450;7.346;2023-04-01T16:41:31;10.40;99.90
12588;DHT22;6359;51.450;7.346;2023-04-01T16:44:10;10.30;99.90
12588;DHT22;6359;51.450;7.346;2023-04-01T16:46:40;10.30;99.90
12588;DHT22;6359;51.450;7.346;2023-04-01T16:49:27;10.30;99.90
12588;DHT22;6359;51.450;7.346;2023-04-01T16:52:11;10.30;99.90
12588;DHT22;6359;51.450;7.346;2023-04-01T16:54:45;10.30;99.90
12588;DHT22;6359;51.450;7.346;2023-04-01T16:57:19;10.20;99.90
12588;DHT22;6359;51.450;7.346;2023-04-01T16:59:55;10.20;99.90
12588;DHT22;6359;51.450;7.346;2023-04-01T17:02:27;10.20;99.90
12588;DHT22;6359;51.450;7.346;2023-04-01T17:05:01;10.20;99.90
12588;DHT22;6359;51.450;7.346;2023-04-01T17:07:42;10.10;99.90
12588;DHT22;6359;51.450;7.346;2023-04-01T17:10:35;10.10;99.90
12588;DHT22;6359;51.450;7.346;2023-04-01T17:13:28;10.10;99.90
12588;DHT22;6359;51.450;7.346;2023-04-01T17:16:10;10.00;99.90
12588;DHT22;6359;51.450;7.346;2023-04-01T17:18:46;10.00;99.90
12588;DHT22;6359;51.450;7.346;2023-04-01T17:21:20;9.90;99.90
12588;DHT22;6359;51.450;7.346;2023-04-01T17:23:52;9.90;99.90
12588;DHT22;6359;51.450;7.346;2023-04-01T17:26:32;9.90;99.90
12588;DHT22;6359;51.450;7.346;2023-04-01T17:29:10;9.90;99.90
12588;DHT22;6359;51.450;7.346;2023-04-01T17:31:47;9.80;99.90
12588;DHT22;6359;51.450;7.346;2023-04-01T17:34:36;9.80;99.90
12588;DHT22;6359;51.450;7.346;2023-04-01T17:37:26;9.80;99.90
12588;DHT22;6359;51.450;7.346;2023-04-01T17:40:12;9.80;99.90
12588;DHT22;6359;51.450;7.346;2023-04-01T17:42:46;9.90;99.90